Terminal Aerodrome Forecast
Issued by NWS

Home | Current Version | Previous Version | Text Only | Print | Product List | Glossary On
Versions: 1 2 3 4 5 6 7 8 9 10 11 12 13 14 15 16 17 18 19 20 21 22 23 24
000
FTUS45 KGJT 310533
TAFASE
TAF
KASE 310533Z 3106/0106 VRB03KT P6SM -RA BKN018 BKN035 OVC060
      TEMPO 3106/3108 VRB09KT -SHRA SCT035 OVC060
     FM310800 21005KT P6SM VCSH BKN090
     FM311400 VRB03KT P6SM SCT090 BKN150
     FM311800 36006KT P6SM SCT090 BKN200
     FM010200 21005KT P6SM SCT090 SCT200=

USA.gov is the U.S. government's official web portal to all federal, state and local government web resources and services.